createdAt,value
2019-01-29T00:00:22.836Z,-901.70
2019-01-29T00:01:23.251Z,-905.79
2019-01-29T00:02:23.282Z,-901.71
2019-01-29T00:03:23.395Z,-906.66
2019-01-29T00:04:23.571Z,-902.08
2019-01-29T00:05:23.749Z,-903.64
2019-01-29T00:06:23.933Z,-899.80
2019-01-29T00:07:24.115Z,-898.87
2019-01-29T00:08:24.317Z,-901.99
2019-01-29T00:09:24.498Z,-899.77
2019-01-29T00:10:24.754Z,-903.75
2019-01-29T00:11:24.819Z,-907.11
2019-01-29T00:12:25.026Z,-909.92
2019-01-29T00:13:25.226Z,-905.84
2019-01-29T00:14:25.401Z,-902.33
2019-01-29T00:15:25.599Z,-901.78
2019-01-29T00:16:25.770Z,-906.84
2019-01-29T00:17:25.925Z,-903.95
2019-01-29T00:18:26.170Z,-904.60
2019-01-29T00:19:26.338Z,-906.00
2019-01-29T00:20:26.525Z,-914.91
2019-01-29T00:21:26.699Z,-909.20
2019-01-29T00:22:33.247Z,-906.63
2019-01-29T00:23:28.063Z,-912.45
2019-01-29T00:24:27.243Z,-912.57
2019-01-29T00:25:27.515Z,-912.62
2019-01-29T00:26:27.636Z,-910.35
2019-01-29T00:27:27.905Z,-913.42
2019-01-29T00:28:27.999Z,-913.83
2019-01-29T00:29:28.211Z,-908.19
2019-01-29T00:30:28.382Z,-911.85
2019-01-29T00:31:28.552Z,-911.73
2019-01-29T00:32:28.757Z,-914.88
2019-01-29T00:33:30.372Z,-915.65
2019-01-29T00:34:29.088Z,-916.56
2019-01-29T00:35:29.860Z,-912.53
2019-01-29T00:36:29.518Z,-912.52
2019-01-29T00:37:29.670Z,-910.03
2019-01-29T00:38:29.851Z,-913.18
2019-01-29T00:39:30.016Z,-913.44
2019-01-29T00:40:30.223Z,-917.43
2019-01-29T00:41:30.392Z,-914.84
2019-01-29T00:42:30.589Z,-916.93
2019-01-29T00:43:30.863Z,-913.26
2019-01-29T00:44:30.914Z,-913.20
2019-01-29T00:45:31.131Z,-917.82
2019-01-29T00:46:31.314Z,-913.86
2019-01-29T00:47:31.522Z,-912.80
2019-01-29T00:48:31.699Z,-911.95
2019-01-29T00:49:31.878Z,-918.78
2019-01-29T00:50:32.081Z,-914.38
2019-01-29T00:51:32.263Z,-916.04
2019-01-29T00:52:32.443Z,-911.45
2019-01-29T00:53:32.626Z,-918.07
2019-01-29T00:54:32.787Z,-916.43
2019-01-29T00:55:33.019Z,-924.85
2019-01-29T00:56:33.166Z,-916.06
2019-01-29T00:57:33.454Z,-920.28
2019-01-29T00:58:33.584Z,-914.77
2019-01-29T00:59:33.805Z,-915.53
2019-01-29T01:00:34.428Z,-920.51
2019-01-29T01:01:34.117Z,-916.03
2019-01-29T01:02:34.326Z,-915.26
2019-01-29T01:03:34.519Z,-910.72
2019-01-29T01:04:34.685Z,-921.36
2019-01-29T01:05:34.868Z,-922.60
2019-01-29T01:06:35.076Z,-916.58
2019-01-29T01:07:35.255Z,-917.59
2019-01-29T01:08:35.571Z,-913.82
2019-01-29T01:09:35.617Z,-918.31
2019-01-29T01:10:36.363Z,-915.47
2019-01-29T01:11:36.006Z,-915.73
2019-01-29T01:12:36.153Z,-913.80
2019-01-29T01:13:36.363Z,-916.11
2019-01-29T01:14:36.543Z,-915.25
2019-01-29T01:15:36.760Z,-918.05
2019-01-29T01:16:37.065Z,-914.79
2019-01-29T01:17:37.108Z,-916.90
2019-01-29T01:18:41.978Z,-914.18
2019-01-29T01:19:37.479Z,-918.82
2019-01-29T01:20:37.665Z,-922.31
2019-01-29T01:21:37.867Z,-916.87
2019-01-29T01:22:38.119Z,-924.75
2019-01-29T01:23:38.237Z,-924.51
2019-01-29T01:24:38.427Z,-921.65
2019-01-29T01:25:38.571Z,-924.64
2019-01-29T01:26:38.776Z,-922.77
2019-01-29T01:27:38.951Z,-924.30
2019-01-29T01:28:39.146Z,-921.62
2019-01-29T01:29:39.309Z,-923.59
2019-01-29T01:30:39.493Z,-930.64
2019-01-29T01:31:39.694Z,-922.11
2019-01-29T01:32:39.922Z,-920.84
2019-01-29T01:33:40.044Z,-922.64
2019-01-29T01:34:40.214Z,-920.57
2019-01-29T01:35:40.396Z,-924.35
2019-01-29T01:36:40.604Z,-922.77
2019-01-29T01:37:40.794Z,-921.67
2019-01-29T01:38:40.992Z,-919.05
2019-01-29T01:39:41.161Z,-925.40
2019-01-29T01:40:41.605Z,-920.97
2019-01-29T01:41:41.644Z,-921.33
2019-01-29T01:42:41.742Z,-921.08
2019-01-29T01:43:41.933Z,-916.60
2019-01-29T01:44:42.109Z,-920.99
2019-01-29T01:45:42.318Z,-920.11
2019-01-29T01:46:42.495Z,-922.23
2019-01-29T01:47:42.656Z,-918.12
2019-01-29T01:48:42.868Z,-921.47
2019-01-29T01:49:43.150Z,-918.90
2019-01-29T01:50:43.221Z,-916.71
2019-01-29T01:51:43.394Z,-924.29
2019-01-29T01:52:43.561Z,-923.59
2019-01-29T01:53:43.778Z,-921.43
2019-01-29T01:54:43.943Z,-923.43
2019-01-29T01:55:44.156Z,-923.46
2019-01-29T01:56:44.354Z,-924.27
2019-01-29T01:57:44.545Z,-919.25
2019-01-29T01:58:44.681Z,-922.37
2019-01-29T01:59:44.851Z,-916.93
2019-01-29T02:00:45.060Z,-922.19
2019-01-29T02:01:45.255Z,-918.41
2019-01-29T02:02:45.420Z,-923.43
2019-01-29T02:03:45.591Z,-927.19
2019-01-29T02:04:45.803Z,-916.10
2019-01-29T02:05:46.047Z,-923.50
2019-01-29T02:06:46.172Z,-921.50
2019-01-29T02:07:46.374Z,-919.00
2019-01-29T02:08:46.519Z,-921.95
2019-01-29T02:09:46.717Z,-921.08
2019-01-29T02:10:46.911Z,-923.39
2019-01-29T02:11:47.113Z,-926.68
2019-01-29T02:12:47.298Z,-922.33
2019-01-29T02:13:47.529Z,-921.77
2019-01-29T02:14:47.702Z,-922.52
2019-01-29T02:15:47.879Z,-923.41
2019-01-29T02:16:48.047Z,-922.98
2019-01-29T02:17:48.244Z,-921.86
2019-01-29T02:18:48.396Z,-920.36
2019-01-29T02:19:48.598Z,-919.34
2019-01-29T02:20:48.750Z,-927.79
2019-01-29T02:21:48.975Z,-923.33
2019-01-29T02:22:49.318Z,-928.00
2019-01-29T02:23:49.331Z,-924.95
2019-01-29T02:24:49.535Z,-926.46
2019-01-29T02:25:49.689Z,-925.12
2019-01-29T02:26:49.906Z,-922.96
2019-01-29T02:27:50.079Z,-924.84
2019-01-29T02:28:50.261Z,-917.35
2019-01-29T02:29:50.454Z,-926.97
2019-01-29T02:30:50.745Z,-925.29
2019-01-29T02:31:50.828Z,-923.13
2019-01-29T02:32:51.006Z,-926.41
2019-01-29T02:33:51.205Z,-923.84
2019-01-29T02:34:51.378Z,-927.47
2019-01-29T02:35:51.550Z,-924.31
2019-01-29T02:36:51.744Z,-925.74
2019-01-29T02:37:51.911Z,-923.98
2019-01-29T02:38:52.156Z,-925.01
2019-01-29T02:39:52.288Z,-925.83
2019-01-29T02:40:52.470Z,-928.09
2019-01-29T02:41:52.649Z,-926.69
2019-01-29T02:42:52.888Z,-927.34
2019-01-29T02:43:53.015Z,-929.54
2019-01-29T02:44:53.217Z,-930.07
2019-01-29T02:45:53.409Z,-930.58
2019-01-29T02:46:53.637Z,-930.57
2019-01-29T02:47:53.713Z,-928.85
2019-01-29T02:48:53.952Z,-930.92
2019-01-29T02:49:54.136Z,-928.05
2019-01-29T02:50:54.312Z,-928.09
2019-01-29T02:51:54.519Z,-923.24
2019-01-29T02:52:54.694Z,-926.44
2019-01-29T02:53:54.878Z,-929.17
2019-01-29T02:54:55.081Z,-930.87
2019-01-29T02:55:55.326Z,-933.34
2019-01-29T02:56:55.470Z,-923.38
2019-01-29T02:57:55.635Z,-932.88
2019-01-29T02:58:55.814Z,-930.40
2019-01-29T02:59:56.007Z,-930.29
2019-01-29T03:00:56.191Z,-927.84
2019-01-29T03:01:56.386Z,-932.89
2019-01-29T03:02:56.563Z,-929.22
2019-01-29T03:03:56.837Z,-931.00
2019-01-29T03:04:56.942Z,-929.32
2019-01-29T03:05:57.122Z,-927.95
2019-01-29T03:06:57.314Z,-927.98
2019-01-29T03:07:57.473Z,-927.49
2019-01-29T03:08:57.689Z,-926.87
2019-01-29T03:09:57.854Z,-928.12
2019-01-29T03:10:58.032Z,-928.53
2019-01-29T03:11:58.287Z,-931.51
2019-01-29T03:12:58.409Z,-936.73
2019-01-29T03:13:58.611Z,-926.77
2019-01-29T03:14:58.782Z,-925.18
2019-01-29T03:15:58.949Z,-926.12
2019-01-29T03:16:59.178Z,-927.56
2019-01-29T03:17:59.357Z,-926.25
2019-01-29T03:18:59.776Z,-928.94
2019-01-29T03:19:59.787Z,-929.72
2019-01-29T03:20:59.868Z,-926.04
2019-01-29T03:22:00.046Z,-927.30
2019-01-29T03:23:00.262Z,-934.45
2019-01-29T03:24:00.457Z,-930.39
2019-01-29T03:25:00.635Z,-931.73
2019-01-29T03:26:00.795Z,-933.00
2019-01-29T03:27:00.978Z,-931.28
2019-01-29T03:28:01.210Z,-931.30
2019-01-29T03:29:01.386Z,-924.64
2019-01-29T03:30:01.564Z,-927.28
2019-01-29T03:31:01.748Z,-920.50
2019-01-29T03:32:01.913Z,-927.43
2019-01-29T03:33:02.125Z,-932.68
2019-01-29T03:34:02.294Z,-932.41
2019-01-29T03:35:02.554Z,-925.51
2019-01-29T03:36:02.682Z,-929.52
2019-01-29T03:37:02.984Z,-932.49
2019-01-29T03:38:03.047Z,-929.56
2019-01-29T03:39:03.222Z,-929.93
2019-01-29T03:40:03.424Z,-930.48
2019-01-29T03:41:03.588Z,-928.97
2019-01-29T03:42:03.800Z,-924.29
2019-01-29T03:43:03.977Z,-926.23
2019-01-29T03:44:04.146Z,-926.51
2019-01-29T03:45:04.444Z,-925.41
2019-01-29T03:46:04.507Z,-926.31
2019-01-29T03:47:04.695Z,-930.90
2019-01-29T03:48:04.898Z,-933.01
2019-01-29T03:49:05.074Z,-925.04
2019-01-29T03:50:05.266Z,-932.53
2019-01-29T03:51:05.426Z,-922.88
2019-01-29T03:52:05.622Z,-925.32
2019-01-29T03:53:05.874Z,-931.09
2019-01-29T03:54:05.997Z,-925.57
2019-01-29T03:55:06.167Z,-931.98
2019-01-29T03:56:06.348Z,-928.15
2019-01-29T03:57:06.530Z,-929.26
2019-01-29T03:58:06.733Z,-935.92
2019-01-29T03:59:06.924Z,-923.88
2019-01-29T04:00:07.100Z,-926.25
2019-01-29T04:01:07.326Z,-926.75
2019-01-29T04:02:07.432Z,-928.87
2019-01-29T04:03:07.638Z,-924.62
2019-01-29T04:04:07.835Z,-926.55
2019-01-29T04:05:08.025Z,-925.72
2019-01-29T04:06:08.189Z,-927.75
2019-01-29T04:07:08.346Z,-926.30
2019-01-29T04:08:08.563Z,-926.00
2019-01-29T04:09:08.790Z,-925.22
2019-01-29T04:10:08.959Z,-924.11
2019-01-29T04:11:09.091Z,-921.77
2019-01-29T04:12:09.274Z,-926.88
2019-01-29T04:13:09.494Z,-927.97
2019-01-29T04:14:09.669Z,-928.22
2019-01-29T04:15:09.846Z,-932.00
2019-01-29T04:16:10.057Z,-928.84
2019-01-29T04:17:10.251Z,-928.76
2019-01-29T04:18:10.586Z,-924.19
2019-01-29T04:19:10.610Z,-926.59
2019-01-29T04:20:10.794Z,-934.17
2019-01-29T04:21:10.995Z,-928.43
2019-01-29T04:22:11.158Z,-923.02
2019-01-29T04:23:11.372Z,-931.92
2019-01-29T04:24:11.553Z,-928.93
2019-01-29T04:25:11.742Z,-931.72
2019-01-29T04:26:12.102Z,-925.97
2019-01-29T04:27:12.103Z,-927.25
2019-01-29T04:28:12.302Z,-923.40
2019-01-29T04:29:12.488Z,-927.97
2019-01-29T04:30:12.661Z,-930.54
2019-01-29T04:31:12.866Z,-922.03
2019-01-29T04:32:13.031Z,-926.97
2019-01-29T04:33:13.247Z,-927.57
2019-01-29T04:34:13.438Z,-933.39
2019-01-29T04:35:13.569Z,-926.71
2019-01-29T04:36:13.781Z,-933.63
2019-01-29T04:37:13.944Z,-928.37
2019-01-29T04:38:14.156Z,-929.62
2019-01-29T04:39:14.315Z,-927.40
2019-01-29T04:40:14.479Z,-929.55
2019-01-29T04:41:14.702Z,-927.55
2019-01-29T04:42:14.945Z,-927.14
2019-01-29T04:43:15.088Z,-928.41
2019-01-29T04:44:15.238Z,-928.35
2019-01-29T04:45:15.415Z,-927.61
2019-01-29T04:46:15.635Z,-923.76
2019-01-29T04:47:15.810Z,-927.53
2019-01-29T04:48:16.020Z,-925.23
2019-01-29T04:49:16.182Z,-921.67
2019-01-29T04:50:16.383Z,-919.94
2019-01-29T04:51:16.688Z,-920.58
2019-01-29T04:52:16.733Z,-932.47
2019-01-29T04:53:16.942Z,-931.07
2019-01-29T04:54:17.103Z,-933.28
2019-01-29T04:55:17.515Z,-927.47
2019-01-29T04:56:17.471Z,-929.62
2019-01-29T04:57:17.643Z,-926.03
2019-01-29T04:58:17.859Z,-922.65
2019-01-29T04:59:18.141Z,-923.73
2019-01-29T05:00:18.202Z,-923.89
2019-01-29T05:01:18.486Z,-930.13
2019-01-29T05:02:18.580Z,-937.34
2019-01-29T05:03:18.812Z,-932.67
2019-01-29T05:04:18.983Z,-929.80
2019-01-29T05:05:19.149Z,-929.54
2019-01-29T05:06:19.352Z,-920.80
2019-01-29T05:07:19.563Z,-923.08
2019-01-29T05:08:19.712Z,-929.37
2019-01-29T05:09:19.874Z,-924.84
2019-01-29T05:10:20.059Z,-929.06
2019-01-29T05:11:20.262Z,-930.66
2019-01-29T05:12:20.429Z,-926.10
2019-01-29T05:13:20.610Z,-926.17
2019-01-29T05:14:20.784Z,-931.82
2019-01-29T05:15:21.051Z,-930.79
2019-01-29T05:16:21.163Z,-926.29
2019-01-29T05:17:21.337Z,-930.32
2019-01-29T05:18:21.534Z,-925.33
2019-01-29T05:19:21.695Z,-928.19
2019-01-29T05:20:21.905Z,-929.61
2019-01-29T05:21:22.121Z,-928.83
2019-01-29T05:22:22.286Z,-932.60
2019-01-29T05:23:22.534Z,-930.86
2019-01-29T05:24:24.788Z,-933.25
2019-01-29T05:25:22.863Z,-928.79
2019-01-29T05:26:23.062Z,-933.68
2019-01-29T05:27:23.232Z,-929.91
2019-01-29T05:28:23.451Z,-925.52
2019-01-29T05:29:23.618Z,-926.24
2019-01-29T05:30:23.804Z,-923.57
2019-01-29T05:31:23.991Z,-927.41
2019-01-29T05:32:24.279Z,-937.85
2019-01-29T05:33:24.354Z,-933.22
2019-01-29T05:34:24.554Z,-925.85
2019-01-29T05:35:24.709Z,-933.39
2019-01-29T05:36:24.919Z,-925.40
2019-01-29T05:37:25.096Z,-929.03
2019-01-29T05:38:25.289Z,-928.58
2019-01-29T05:39:25.493Z,-922.61
2019-01-29T05:40:25.763Z,-919.48
2019-01-29T05:41:25.850Z,-919.70
2019-01-29T05:42:26.034Z,-926.15
2019-01-29T05:43:26.216Z,-928.91
2019-01-29T05:44:26.430Z,-931.28
2019-01-29T05:45:26.586Z,-931.81
2019-01-29T05:46:26.793Z,-928.53
2019-01-29T05:47:26.952Z,-928.10
2019-01-29T05:48:27.190Z,-928.04
2019-01-29T05:49:27.351Z,-924.90
2019-01-29T05:50:27.520Z,-925.60
2019-01-29T05:51:27.701Z,-922.56
2019-01-29T05:52:27.857Z,-920.82
2019-01-29T05:53:28.039Z,-925.90
2019-01-29T05:54:28.251Z,-926.13
2019-01-29T05:55:28.441Z,-931.46
2019-01-29T05:56:28.676Z,-935.25
2019-01-29T05:57:28.797Z,-935.65
2019-01-29T05:58:28.979Z,-930.02
2019-01-29T05:59:29.184Z,-929.49
2019-01-29T06:00:29.363Z,-936.55
2019-01-29T06:01:29.555Z,-923.63
2019-01-29T06:02:29.715Z,-936.52
2019-01-29T06:03:29.907Z,-928.67
2019-01-29T06:04:30.117Z,-934.61
2019-01-29T06:05:30.604Z,-929.37
2019-01-29T06:06:30.464Z,-927.72
2019-01-29T06:07:30.630Z,-926.95
2019-01-29T06:08:30.814Z,-931.07
2019-01-29T06:09:31.009Z,-931.19
2019-01-29T06:10:31.184Z,-924.86
2019-01-29T06:11:31.398Z,-927.63
2019-01-29T06:12:31.564Z,-925.38
2019-01-29T06:13:31.859Z,-925.08
2019-01-29T06:14:31.949Z,-928.05
2019-01-29T06:15:32.116Z,-921.45
2019-01-29T06:16:32.328Z,-923.57
2019-01-29T06:17:32.498Z,-926.29
2019-01-29T06:18:32.683Z,-922.43
2019-01-29T06:19:32.896Z,-924.77
2019-01-29T06:20:33.037Z,-925.40
2019-01-29T06:21:33.303Z,-925.68
2019-01-29T06:22:33.404Z,-917.09
2019-01-29T06:23:33.594Z,-915.73
2019-01-29T06:24:33.806Z,-905.16
2019-01-29T06:25:33.946Z,-909.31
2019-01-29T06:26:34.149Z,-905.31
2019-01-29T06:27:34.330Z,-906.49
2019-01-29T06:28:34.515Z,-907.88
2019-01-29T06:29:34.801Z,-904.33
2019-01-29T06:30:34.864Z,-905.17
2019-01-29T06:31:35.062Z,-902.63
2019-01-29T06:32:35.220Z,-907.04
2019-01-29T06:33:35.427Z,-914.97
2019-01-29T06:34:35.632Z,-912.78
2019-01-29T06:35:35.808Z,-907.61
2019-01-29T06:36:36.008Z,-911.96
2019-01-29T06:37:36.190Z,-905.38
2019-01-29T06:38:36.398Z,-911.92
2019-01-29T06:39:36.565Z,-917.91
2019-01-29T06:40:36.736Z,-911.85
2019-01-29T06:41:36.913Z,-909.71
2019-01-29T06:42:37.117Z,-908.50
2019-01-29T06:43:37.287Z,-913.16
2019-01-29T06:44:37.502Z,-911.34
2019-01-29T06:45:37.681Z,-913.17
2019-01-29T06:46:37.992Z,-912.33
2019-01-29T06:47:38.072Z,-922.04
2019-01-29T06:48:38.230Z,-910.59
2019-01-29T06:49:38.448Z,-916.88
2019-01-29T06:50:38.602Z,-911.03
2019-01-29T06:51:38.786Z,-914.73
2019-01-29T06:52:38.996Z,-920.61
2019-01-29T06:53:39.164Z,-924.21
2019-01-29T06:54:39.429Z,-917.02
2019-01-29T06:55:39.524Z,-913.92
2019-01-29T06:56:39.710Z,-907.28
2019-01-29T06:57:39.908Z,-910.14
2019-01-29T06:58:40.066Z,-905.42
2019-01-29T06:59:40.268Z,-899.60
2019-01-29T07:00:40.446Z,-898.46
2019-01-29T07:01:40.643Z,-899.23
2019-01-29T07:02:40.899Z,-891.98
2019-01-29T07:03:40.989Z,-899.38
2019-01-29T07:04:41.230Z,-897.82
2019-01-29T07:05:41.353Z,-892.88
2019-01-29T07:06:41.581Z,-894.76
2019-01-29T07:07:41.751Z,-895.44
2019-01-29T07:08:41.917Z,-890.25
2019-01-29T07:09:42.117Z,-893.35
2019-01-29T07:10:44.145Z,-893.26
2019-01-29T07:11:42.497Z,-889.58
2019-01-29T07:12:42.675Z,-891.94
2019-01-29T07:13:42.842Z,-892.77
2019-01-29T07:14:43.043Z,-897.90
2019-01-29T07:15:43.201Z,-899.32
2019-01-29T07:16:43.403Z,-899.72
2019-01-29T07:17:43.578Z,-901.26
2019-01-29T07:18:43.793Z,-902.81
2019-01-29T07:19:44.074Z,-897.32
2019-01-29T07:20:44.133Z,-894.69
2019-01-29T07:21:44.329Z,-900.49
2019-01-29T07:22:44.514Z,-900.11
2019-01-29T07:23:44.697Z,-898.13
2019-01-29T07:24:44.899Z,-904.21
2019-01-29T07:25:45.066Z,-896.84
2019-01-29T07:26:45.259Z,-895.83
2019-01-29T07:27:45.533Z,-896.63
2019-01-29T07:28:45.612Z,-895.45
2019-01-29T07:29:45.817Z,-896.79
2019-01-29T07:30:45.992Z,-901.06
2019-01-29T07:31:46.172Z,-902.32
2019-01-29T07:32:46.359Z,-899.23
2019-01-29T07:33:46.541Z,-898.47
2019-01-29T07:34:46.739Z,-893.80
2019-01-29T07:35:47.000Z,-897.33
2019-01-29T07:36:47.094Z,-893.57
2019-01-29T07:37:47.274Z,-902.03
2019-01-29T07:38:47.451Z,-894.22
2019-01-29T07:39:47.651Z,-893.62
2019-01-29T07:40:47.865Z,-951.22
2019-01-29T07:41:48.029Z,-949.60
2019-01-29T07:42:48.243Z,-944.80
2019-01-29T07:43:48.461Z,-945.97
2019-01-29T07:44:48.573Z,-944.71
2019-01-29T07:45:48.817Z,-950.02
2019-01-29T07:46:49.001Z,-944.19
2019-01-29T07:47:49.176Z,-939.52
2019-01-29T07:48:49.348Z,-946.78
2019-01-29T07:49:49.525Z,-942.41
2019-01-29T07:50:49.724Z,-946.64
2019-01-29T07:51:49.977Z,-947.91
2019-01-29T07:52:50.159Z,-945.60
2019-01-29T07:53:50.273Z,-954.64
2019-01-29T07:54:51.209Z,-954.09
2019-01-29T07:55:50.659Z,-942.15
2019-01-29T07:56:50.863Z,-943.57
2019-01-29T07:57:51.041Z,-951.05
2019-01-29T07:58:51.212Z,-945.08
2019-01-29T07:59:51.485Z,-951.40
2019-01-29T08:00:51.700Z,-955.10
2019-01-29T08:01:51.788Z,-953.16
2019-01-29T08:02:51.964Z,-948.36
2019-01-29T08:03:52.130Z,-945.85
2019-01-29T08:04:52.309Z,-945.97
2019-01-29T08:05:52.494Z,-949.97
2019-01-29T08:06:52.721Z,-945.75
2019-01-29T08:07:52.886Z,-948.27
2019-01-29T08:08:53.170Z,-948.81
2019-01-29T08:09:53.227Z,-943.41
2019-01-29T08:10:53.416Z,-951.74
2019-01-29T08:11:53.845Z,-945.11
2019-01-29T08:12:54.045Z,-945.09
2019-01-29T08:13:54.213Z,-947.53
2019-01-29T08:14:54.397Z,-949.30
2019-01-29T08:15:54.598Z,-945.93
2019-01-29T08:16:54.859Z,-942.92
2019-01-29T08:17:54.935Z,-960.03
2019-01-29T08:18:55.116Z,-955.18
2019-01-29T08:19:55.308Z,-953.10
2019-01-29T08:20:55.513Z,-948.39
2019-01-29T08:21:55.707Z,-952.89
2019-01-29T08:22:55.881Z,-958.25
2019-01-29T08:23:56.026Z,-948.04
2019-01-29T08:25:01.717Z,-948.20
2019-01-29T08:25:57.423Z,-946.57
2019-01-29T08:26:56.629Z,-945.11
2019-01-29T08:27:56.802Z,-954.32
2019-01-29T08:28:56.954Z,-951.41
2019-01-29T08:29:57.140Z,-947.68
2019-01-29T08:30:57.357Z,-955.08
2019-01-29T08:31:57.549Z,-950.34
2019-01-29T08:32:57.747Z,-950.45
2019-01-29T08:33:57.971Z,-943.27
2019-01-29T08:34:58.084Z,-943.62
2019-01-29T08:35:58.298Z,-948.70
2019-01-29T08:36:58.493Z,-955.12
2019-01-29T08:37:58.668Z,-949.87
2019-01-29T08:38:58.836Z,-945.36
2019-01-29T08:39:59.005Z,-951.36
2019-01-29T08:40:59.208Z,-944.09
2019-01-29T08:41:59.502Z,-945.79
2019-01-29T08:42:59.569Z,-942.76
2019-01-29T08:43:59.754Z,-953.40
2019-01-29T08:44:59.926Z,-946.29
2019-01-29T08:46:00.148Z,-955.14
2019-01-29T08:47:00.338Z,-954.11
2019-01-29T08:48:00.510Z,-958.42
2019-01-29T08:49:00.718Z,-959.26
2019-01-29T08:50:00.993Z,-952.57
2019-01-29T08:51:01.073Z,-956.77
2019-01-29T08:52:01.259Z,-954.68
2019-01-29T08:53:01.444Z,-954.34
2019-01-29T08:54:01.647Z,-957.53
2019-01-29T08:55:10.112Z,-952.60
2019-01-29T08:56:03.030Z,-952.55
2019-01-29T08:57:02.166Z,-966.75
2019-01-29T08:58:02.402Z,-960.53
2019-01-29T08:59:02.567Z,-961.56
2019-01-29T09:00:02.741Z,-964.70
2019-01-29T09:01:02.949Z,-963.31
2019-01-29T09:02:03.104Z,-961.18
2019-01-29T09:03:03.275Z,-962.93
2019-01-29T09:04:03.485Z,-956.24
2019-01-29T09:05:03.661Z,-970.13
2019-01-29T09:06:03.885Z,-964.76
2019-01-29T09:07:04.034Z,-961.27
2019-01-29T09:08:04.199Z,-964.38
2019-01-29T09:09:04.412Z,-964.84
2019-01-29T09:10:04.582Z,-906.70
2019-01-29T09:11:04.784Z,-959.99
2019-01-29T09:12:04.952Z,-900.43
2019-01-29T09:13:05.138Z,-964.68
2019-01-29T09:14:05.333Z,-966.79
2019-01-29T09:15:05.616Z,-963.95
2019-01-29T09:16:05.737Z,-966.68
2019-01-29T09:17:05.875Z,-966.06
2019-01-29T09:18:06.067Z,-961.91
2019-01-29T09:19:06.245Z,-959.71
2019-01-29T09:20:06.423Z,-958.65
2019-01-29T09:21:06.625Z,-958.52
2019-01-29T09:22:06.794Z,-960.10
2019-01-29T09:23:07.497Z,-963.69
2019-01-29T09:24:07.161Z,-963.77
2019-01-29T09:25:07.346Z,-955.37
2019-01-29T09:26:07.547Z,-955.53
2019-01-29T09:27:07.715Z,-960.08
2019-01-29T09:28:07.923Z,-967.82
2019-01-29T09:29:08.102Z,-960.74
2019-01-29T09:30:08.256Z,-908.53
2019-01-29T09:31:08.509Z,-958.88
2019-01-29T09:32:08.612Z,-960.27
2019-01-29T09:33:08.821Z,-959.43
2019-01-29T09:34:09.014Z,-954.03
2019-01-29T09:35:09.165Z,-952.33
2019-01-29T09:36:09.378Z,-947.89
2019-01-29T09:37:09.556Z,-954.78
2019-01-29T09:38:09.737Z,-908.41
2019-01-29T09:39:10.035Z,-955.49
2019-01-29T09:40:10.079Z,-950.55
2019-01-29T09:41:10.305Z,-955.29
2019-01-29T09:42:10.469Z,-895.54
2019-01-29T09:43:10.693Z,-951.80
2019-01-29T09:44:10.877Z,-954.15
2019-01-29T09:45:11.038Z,-947.16
2019-01-29T09:46:11.229Z,-957.28
2019-01-29T09:47:11.409Z,-955.16
2019-01-29T09:48:11.689Z,-946.59
2019-01-29T09:49:11.789Z,-949.18
2019-01-29T09:50:12.183Z,-950.57
2019-01-29T09:51:12.150Z,-960.78
2019-01-29T09:52:12.341Z,-948.31
2019-01-29T09:53:12.514Z,-950.61
2019-01-29T09:54:12.728Z,-958.19
2019-01-29T09:55:13.559Z,-955.77
2019-01-29T09:56:13.211Z,-956.22
2019-01-29T09:57:13.283Z,-956.48
2019-01-29T09:58:13.447Z,-950.28
2019-01-29T09:59:13.666Z,-956.85
2019-01-29T10:00:13.836Z,-955.32
2019-01-29T10:01:14.051Z,-954.63
2019-01-29T10:02:14.228Z,-910.01
2019-01-29T10:03:14.419Z,-955.23
2019-01-29T10:04:14.660Z,-955.29
2019-01-29T10:05:14.749Z,-952.77
2019-01-29T10:06:14.942Z,-958.17
2019-01-29T10:07:15.130Z,-955.46
2019-01-29T10:08:15.313Z,-957.10
2019-01-29T10:09:15.494Z,-953.87
2019-01-29T10:10:15.674Z,-955.89
2019-01-29T10:11:15.876Z,-971.33
2019-01-29T10:12:16.134Z,-959.59
2019-01-29T10:13:16.269Z,-965.88
2019-01-29T10:14:16.438Z,-961.69
2019-01-29T10:15:16.586Z,-962.18
2019-01-29T10:16:16.782Z,-965.45
2019-01-29T10:17:16.986Z,-961.47
2019-01-29T10:18:17.168Z,-960.72
2019-01-29T10:19:17.358Z,-964.34
2019-01-29T10:20:17.550Z,-962.53
2019-01-29T10:21:17.718Z,-957.08
2019-01-29T10:22:17.919Z,-957.22
2019-01-29T10:23:18.109Z,-960.61
2019-01-29T10:24:18.286Z,-898.41
2019-01-29T10:25:18.445Z,-956.90
2019-01-29T10:26:18.622Z,-959.80
2019-01-29T10:27:18.838Z,-958.95
2019-01-29T10:28:19.045Z,-963.58
2019-01-29T10:29:19.348Z,-966.64
2019-01-29T10:30:19.390Z,-967.45
2019-01-29T10:31:19.559Z,-970.54
2019-01-29T10:32:19.787Z,-966.97
2019-01-29T10:33:19.954Z,-909.11
2019-01-29T10:34:20.145Z,-911.57
2019-01-29T10:35:20.307Z,-908.12
2019-01-29T10:36:20.492Z,-910.15
2019-01-29T10:37:20.803Z,-912.23
2019-01-29T10:38:20.866Z,-911.79
2019-01-29T10:39:21.081Z,-913.33
2019-01-29T10:40:21.239Z,-909.36
2019-01-29T10:41:21.423Z,-908.95
2019-01-29T10:42:21.621Z,-906.30
2019-01-29T10:43:21.779Z,-912.19
2019-01-29T10:44:22.012Z,-910.57
2019-01-29T10:45:22.242Z,-912.50
2019-01-29T10:46:22.346Z,-904.33
2019-01-29T10:47:22.558Z,-913.19
2019-01-29T10:48:22.697Z,-904.93
2019-01-29T10:49:22.905Z,-902.76
2019-01-29T10:50:23.092Z,-900.98
2019-01-29T10:51:23.277Z,-912.74
2019-01-29T10:52:23.503Z,-908.38
2019-01-29T10:53:23.712Z,-905.85
2019-01-29T10:54:23.832Z,-907.16
2019-01-29T10:55:24.030Z,-911.68
2019-01-29T10:56:24.231Z,-908.77
2019-01-29T10:57:24.420Z,-908.78
2019-01-29T10:58:24.596Z,-905.82
2019-01-29T10:59:24.783Z,-904.99
2019-01-29T11:00:24.965Z,-905.58
2019-01-29T11:01:25.190Z,-897.19
2019-01-29T11:02:25.461Z,-905.99
2019-01-29T11:03:25.536Z,-901.04
2019-01-29T11:04:25.731Z,-894.99
2019-01-29T11:05:25.910Z,-896.97
2019-01-29T11:06:26.091Z,-899.39
2019-01-29T11:07:26.295Z,-898.06
2019-01-29T11:08:26.459Z,-903.33
2019-01-29T11:09:26.687Z,-907.50
2019-01-29T11:10:26.947Z,-910.11
2019-01-29T11:11:27.011Z,-910.67
2019-01-29T11:12:27.207Z,-908.52
2019-01-29T11:13:27.376Z,-897.73
2019-01-29T11:14:27.587Z,-901.99
2019-01-29T11:15:27.752Z,-905.03
2019-01-29T11:16:27.929Z,-905.37
2019-01-29T11:17:28.146Z,-904.00
2019-01-29T11:18:28.377Z,-905.17
2019-01-29T11:19:28.523Z,-904.36
2019-01-29T11:20:28.657Z,-901.84
2019-01-29T11:21:28.841Z,-904.15
2019-01-29T11:22:29.057Z,-899.01
2019-01-29T11:23:29.232Z,-895.69
2019-01-29T11:24:29.419Z,-891.72
2019-01-29T11:25:29.614Z,-897.94
2019-01-29T11:26:29.816Z,-893.36
2019-01-29T11:27:30.949Z,-898.61
2019-01-29T11:28:30.163Z,-898.52
2019-01-29T11:29:30.562Z,-893.16
2019-01-29T11:30:30.537Z,-893.50
2019-01-29T11:31:30.691Z,-901.93
2019-01-29T11:32:30.904Z,-898.60
2019-01-29T11:33:31.069Z,-895.44
2019-01-29T11:34:31.287Z,-905.37
2019-01-29T11:35:31.591Z,-898.72
2019-01-29T11:36:31.651Z,-901.77
2019-01-29T11:37:31.858Z,-892.39
2019-01-29T11:38:32.075Z,-892.33
2019-01-29T11:39:32.212Z,-916.64
2019-01-29T11:40:32.426Z,-911.67
2019-01-29T11:41:32.594Z,-888.94
2019-01-29T11:42:32.902Z,-901.82
2019-01-29T11:43:33.109Z,-903.13
2019-01-29T11:44:33.179Z,-897.01
2019-01-29T11:45:33.367Z,-905.37
2019-01-29T11:46:33.520Z,-896.87
2019-01-29T11:47:33.721Z,-904.91
2019-01-29T11:48:33.888Z,-902.22
2019-01-29T11:49:34.077Z,-901.29
2019-01-29T11:50:34.269Z,-897.80
2019-01-29T11:51:34.525Z,-897.16
2019-01-29T11:52:34.653Z,-891.19
2019-01-29T11:53:34.830Z,-897.77
2019-01-29T11:54:34.992Z,-897.98
2019-01-29T11:55:35.206Z,-895.58
2019-01-29T11:56:35.387Z,-888.34
2019-01-29T11:57:35.544Z,-895.24
2019-01-29T11:58:36.108Z,-898.58
2019-01-29T11:59:36.130Z,-903.85
2019-01-29T12:00:36.111Z,-917.36
2019-01-29T12:01:36.304Z,-905.36
2019-01-29T12:02:36.486Z,-908.68
2019-01-29T12:03:36.698Z,-902.46
2019-01-29T12:04:37.103Z,-902.19
2019-01-29T12:05:37.079Z,-902.90
2019-01-29T12:06:37.242Z,-897.42
2019-01-29T12:07:37.454Z,-899.09